createdAt,value
2019-02-05T00:00:36.356Z,15.77
2019-02-05T00:05:49.832Z,16.53
2019-02-05T00:11:05.446Z,17.17
2019-02-05T00:16:16.229Z,16.05
2019-02-05T00:21:28.261Z,16.05
2019-02-05T00:26:42.769Z,16.20
2019-02-05T00:31:51.738Z,18.07
2019-02-05T00:37:07.588Z,17.43
2019-02-05T00:42:16.070Z,17.80
2019-02-05T00:47:26.846Z,16.70
2019-02-05T00:52:38.507Z,18.10
2019-02-05T00:57:56.843Z,17.47
2019-02-05T01:03:04.214Z,18.10
2019-02-05T01:08:12.979Z,18.37
2019-02-05T01:13:24.720Z,19.40
2019-02-05T01:18:33.978Z,18.73
2019-02-05T01:23:42.346Z,18.77
2019-02-05T01:28:51.110Z,20.10
2019-02-05T01:33:59.726Z,20.70
2019-02-05T01:39:09.673Z,19.03
2019-02-05T01:44:23.436Z,20.40
2019-02-05T01:49:34.777Z,20.63
2019-02-05T01:54:42.149Z,21.17
2019-02-05T01:59:52.978Z,20.37
2019-02-05T02:05:02.202Z,22.73
2019-02-05T02:10:12.209Z,22.40
2019-02-05T02:15:24.748Z,21.10
2019-02-05T02:20:36.202Z,22.83
2019-02-05T02:25:45.193Z,22.60
2019-02-05T02:30:52.611Z,24.07
2019-02-05T02:36:04.399Z,25.80
2019-02-05T02:41:21.646Z,26.80
2019-02-05T02:46:32.550Z,24.47
2019-02-05T02:51:45.483Z,27.07
2019-02-05T02:57:04.918Z,26.67
2019-02-05T03:02:13.542Z,27.30
2019-02-05T03:07:25.554Z,29.20
2019-02-05T03:12:35.650Z,29.27
2019-02-05T03:17:52.070Z,28.90
2019-02-05T03:23:01.094Z,30.73
2019-02-05T03:28:12.841Z,32.43
2019-02-05T03:33:22.852Z,30.50
2019-02-05T03:38:29.707Z,32.33
2019-02-05T03:43:39.524Z,32.40
2019-02-05T03:48:56.100Z,30.87
2019-02-05T03:54:16.299Z,30.40
2019-02-05T03:59:44.330Z,34.77
2019-02-05T04:05:28.313Z,34.03
2019-02-05T04:11:19.588Z,37.83
2019-02-05T04:17:34.902Z,37.23
2019-02-05T04:22:59.751Z,40.93
2019-02-05T04:28:31.496Z,39.80
2019-02-05T04:33:59.015Z,54.77
2019-02-05T04:39:50.194Z,41.70
2019-02-05T04:45:53.002Z,43.37
2019-02-05T04:51:29.930Z,40.53
2019-02-05T04:57:20.379Z,45.80
2019-02-05T05:02:55.447Z,41.63
2019-02-05T05:08:52.207Z,46.77
2019-02-05T05:14:05.670Z,45.03
2019-02-05T05:19:19.399Z,46.10
2019-02-05T05:24:35.046Z,45.97
2019-02-05T05:29:46.828Z,42.70
2019-02-05T05:35:01.578Z,40.73
2019-02-05T05:40:11.018Z,42.87
2019-02-05T05:45:24.945Z,43.33
2019-02-05T05:50:33.080Z,40.60
2019-02-05T05:55:48.138Z,42.97
2019-02-05T06:01:02.054Z,39.33
2019-02-05T06:06:16.101Z,37.47
2019-02-05T06:11:45.050Z,38.83
2019-02-05T06:16:55.596Z,40.43
2019-02-05T06:22:08.334Z,36.87
2019-02-05T06:27:18.681Z,39.03
2019-02-05T06:32:30.542Z,37.00
2019-02-05T06:37:41.405Z,37.30
2019-02-05T06:42:55.028Z,38.57
2019-02-05T06:48:24.945Z,37.70
2019-02-05T06:53:33.497Z,38.60
2019-02-05T06:58:46.398Z,39.20
2019-02-05T07:03:54.612Z,38.73
2019-02-05T07:09:04.795Z,39.60
2019-02-05T07:14:15.769Z,38.83
2019-02-05T07:19:26.766Z,39.80
2019-02-05T07:24:41.331Z,37.70
2019-02-05T07:29:54.199Z,37.37
2019-02-05T07:35:03.646Z,36.77
2019-02-05T07:40:15.400Z,35.87
2019-02-05T07:45:26.651Z,35.50
2019-02-05T07:50:35.841Z,35.20
2019-02-05T07:55:47.153Z,35.87
2019-02-05T08:01:02.866Z,36.37
2019-02-05T08:06:12.904Z,37.00
2019-02-05T08:11:27.664Z,37.83
2019-02-05T08:16:38.591Z,37.50
2019-02-05T08:21:49.252Z,36.83
2019-02-05T08:26:58.444Z,39.10
2019-02-05T08:32:08.810Z,38.70
2019-02-05T08:37:24.333Z,36.88
2019-02-05T08:42:35.417Z,36.87
2019-02-05T08:47:43.768Z,36.83
2019-02-05T08:52:51.522Z,33.20
2019-02-05T08:58:05.305Z,32.07
2019-02-05T09:03:14.065Z,31.33
2019-02-05T09:08:27.612Z,30.63
2019-02-05T09:13:40.054Z,30.60
2019-02-05T09:18:54.040Z,30.30
2019-02-05T09:24:06.857Z,32.30
2019-02-05T09:29:18.966Z,33.58
2019-02-05T09:34:34.392Z,29.93
2019-02-05T09:39:48.210Z,30.10
2019-02-05T09:45:00.048Z,30.47
2019-02-05T09:50:31.048Z,30.47
2019-02-05T09:55:41.320Z,27.77
2019-02-05T10:00:52.300Z,37.45
2019-02-05T10:06:04.531Z,27.80
2019-02-05T10:11:17.841Z,26.57
2019-02-05T10:16:29.967Z,27.45
2019-02-05T10:21:40.019Z,26.83
2019-02-05T10:26:51.869Z,26.93
2019-02-05T10:32:03.758Z,27.37
2019-02-05T10:37:16.492Z,26.70
2019-02-05T10:42:31.091Z,25.43
2019-02-05T10:47:41.042Z,25.07
2019-02-05T10:52:59.501Z,27.60
2019-02-05T10:58:13.649Z,26.47
2019-02-05T11:03:23.174Z,28.03
2019-02-05T11:08:39.264Z,26.60
2019-02-05T11:13:52.904Z,27.50
2019-02-05T11:19:06.743Z,26.40
2019-02-05T11:24:18.820Z,25.08
2019-02-05T11:29:35.895Z,27.97
2019-02-05T11:34:48.627Z,26.30
2019-02-05T11:40:04.787Z,27.93
2019-02-05T11:45:19.758Z,26.07
2019-02-05T11:50:32.620Z,24.83
2019-02-05T11:55:44.662Z,26.27
2019-02-05T12:00:57.840Z,27.35
2019-02-05T12:06:07.549Z,26.67
2019-02-05T12:11:17.545Z,26.60
2019-02-05T12:16:29.880Z,27.55
2019-02-05T12:21:47.359Z,28.13
2019-02-05T12:26:55.465Z,27.77
2019-02-05T12:32:07.522Z,26.50
2019-02-05T12:37:19.431Z,26.35
2019-02-05T12:42:34.923Z,25.33
2019-02-05T12:47:48.144Z,23.73
2019-02-05T12:53:04.363Z,24.47
2019-02-05T12:58:17.056Z,23.37
2019-02-05T13:03:32.175Z,21.93
2019-02-05T13:08:42.234Z,24.97
2019-02-05T13:13:53.007Z,25.57
2019-02-05T13:19:02.186Z,24.87
2019-02-05T13:24:16.661Z,25.43
2019-02-05T13:29:23.251Z,22.73
2019-02-05T13:34:36.027Z,24.57
2019-02-05T13:39:46.895Z,23.40
2019-02-05T13:45:03.423Z,24.63
2019-02-05T13:50:13.758Z,23.12
2019-02-05T13:55:23.509Z,23.60
2019-02-05T14:00:38.452Z,24.30
2019-02-05T14:05:51.190Z,23.53
2019-02-05T14:11:04.984Z,23.10
2019-02-05T14:16:17.038Z,25.62
2019-02-05T14:21:29.733Z,24.20
2019-02-05T14:26:43.511Z,25.00
2019-02-05T14:31:55.716Z,24.07
2019-02-05T14:37:05.788Z,25.57
2019-02-05T14:42:14.895Z,26.05
2019-02-05T14:47:31.022Z,26.83
2019-02-05T14:52:38.515Z,27.10
2019-02-05T14:57:49.561Z,29.27
2019-02-05T15:03:02.434Z,29.80
2019-02-05T15:08:14.544Z,30.43
2019-02-05T15:13:25.552Z,30.80
2019-02-05T15:18:40.323Z,31.37
2019-02-05T15:23:55.826Z,32.17
2019-02-05T15:29:06.735Z,32.65
2019-02-05T15:34:24.240Z,33.50
2019-02-05T15:39:36.943Z,32.87
2019-02-05T15:44:47.000Z,31.80
2019-02-05T15:50:06.210Z,34.30
2019-02-05T15:55:20.976Z,33.23
2019-02-05T16:00:34.739Z,34.55
2019-02-05T16:05:43.955Z,32.93
2019-02-05T16:10:58.574Z,33.90
2019-02-05T16:16:10.588Z,31.63
2019-02-05T16:21:26.772Z,32.77
2019-02-05T16:26:40.450Z,31.90
2019-02-05T16:31:51.254Z,31.80
2019-02-05T16:36:59.613Z,31.90
2019-02-05T16:42:12.334Z,32.57
2019-02-05T16:47:25.529Z,30.80
2019-02-05T16:52:36.466Z,31.90
2019-02-05T16:57:50.174Z,29.23
2019-02-05T17:03:04.274Z,27.37
2019-02-05T17:08:16.563Z,29.07
2019-02-05T17:13:26.611Z,28.20
2019-02-05T17:18:40.308Z,28.97
2019-02-05T17:23:53.999Z,27.80
2019-02-05T17:29:06.797Z,30.13
2019-02-05T17:34:17.034Z,27.67
2019-02-05T17:39:27.791Z,26.55
2019-02-05T17:44:44.049Z,24.90
2019-02-05T17:49:56.501Z,24.93
2019-02-05T17:55:14.004Z,25.83
2019-02-05T18:00:54.192Z,25.73
2019-02-05T18:06:02.361Z,28.40
2019-02-05T18:11:12.702Z,30.77
2019-02-05T18:16:24.506Z,30.90
2019-02-05T18:21:32.886Z,27.77
2019-02-05T18:26:43.737Z,30.40
2019-02-05T18:31:56.496Z,33.67
2019-02-05T18:37:14.001Z,33.57
2019-02-05T18:42:24.885Z,35.03
2019-02-05T18:47:37.717Z,36.33
2019-02-05T18:52:50.868Z,36.67
2019-02-05T18:58:08.924Z,35.70
2019-02-05T19:03:15.699Z,34.83
2019-02-05T19:08:28.614Z,32.47
2019-02-05T19:13:41.292Z,30.63
2019-02-05T19:18:48.742Z,32.00
2019-02-05T19:24:07.988Z,30.70
2019-02-05T19:29:23.832Z,27.83
2019-02-05T19:34:37.479Z,28.57
2019-02-05T19:39:47.702Z,27.27
2019-02-05T19:45:13.380Z,28.10
2019-02-05T19:50:23.989Z,27.87
2019-02-05T19:55:32.319Z,28.73
2019-02-05T20:00:46.623Z,27.80
2019-02-05T20:07:36.451Z,28.13
2019-02-05T20:12:47.231Z,28.33
2019-02-05T20:17:56.686Z,28.00
2019-02-05T20:23:08.752Z,28.87
2019-02-05T20:28:15.671Z,27.87
2019-02-05T20:33:24.399Z,27.32
2019-02-05T20:38:34.554Z,28.27
2019-02-05T20:43:46.890Z,27.57
2019-02-05T20:48:59.824Z,28.43
2019-02-05T20:54:07.957Z,29.20
2019-02-05T20:59:20.910Z,29.03
2019-02-05T21:04:35.574Z,29.97
2019-02-05T21:09:49.426Z,30.23
2019-02-05T21:15:01.035Z,30.03
2019-02-05T21:20:09.475Z,30.10
2019-02-05T21:25:21.870Z,29.00
2019-02-05T21:30:32.402Z,30.03
2019-02-05T21:35:40.340Z,30.87
2019-02-05T21:40:48.393Z,28.73
2019-02-05T21:46:01.290Z,28.57
2019-02-05T21:51:11.167Z,31.47
2019-02-05T21:56:26.861Z,31.45
2019-02-05T22:01:35.403Z,29.17
2019-02-05T22:06:48.164Z,32.33
2019-02-05T22:12:02.142Z,30.90
2019-02-05T22:17:13.923Z,32.25
2019-02-05T22:22:26.535Z,30.90
2019-02-05T22:27:37.523Z,31.17
2019-02-05T22:32:49.643Z,28.23
2019-02-05T22:38:10.613Z,25.93
2019-02-05T22:43:25.713Z,23.90
2019-02-05T22:48:37.529Z,21.83
2019-02-05T22:59:22.707Z,20.23
2019-02-05T23:05:14.199Z,20.40
2019-02-05T23:11:03.104Z,20.85
2019-02-05T23:16:07.282Z,18.70
2019-02-05T23:21:22.383Z,17.50
2019-02-05T23:26:37.610Z,15.77
2019-02-05T23:31:51.257Z,14.83
2019-02-05T23:37:00.333Z,13.53
2019-02-05T23:42:08.245Z,12.50
2019-02-05T23:47:18.562Z,11.15
2019-02-05T23:52:31.468Z,10.30
2019-02-05T23:57:42.046Z,12.10
